sensor_id;sensor_type;location;lat;lon;timestamp;temperature;humidity
2363;DHT22;64265;51.664;7.626;2023-03-14T00:01:44;20.80;74.90
2363;DHT22;64265;51.664;7.626;2023-03-14T00:04:11;20.70;74.70
2363;DHT22;64265;51.664;7.626;2023-03-14T00:06:38;20.70;74.70
2363;DHT22;64265;51.664;7.626;2023-03-14T00:09:04;20.70;74.60
2363;DHT22;64265;51.664;7.626;2023-03-14T00:11:32;20.70;74.50
2363;DHT22;64265;51.664;7.626;2023-03-14T00:13:59;20.80;74.50
2363;DHT22;64265;51.664;7.626;2023-03-14T00:16:26;20.80;74.40
2363;DHT22;64265;51.664;7.626;2023-03-14T00:18:53;20.80;74.30
2363;DHT22;64265;51.664;7.626;2023-03-14T00:21:20;20.80;74.30
2363;DHT22;64265;51.664;7.626;2023-03-14T00:23:46;20.80;74.20
2363;DHT22;64265;51.664;7.626;2023-03-14T00:26:17;20.70;74.10
2363;DHT22;64265;51.664;7.626;2023-03-14T00:28:46;20.70;74.10
2363;DHT22;64265;51.664;7.626;2023-03-14T00:31:14;20.70;74.10
2363;DHT22;64265;51.664;7.626;2023-03-14T00:33:41;20.70;74.10
2363;DHT22;64265;51.664;7.626;2023-03-14T00:36:10;20.70;74.00
2363;DHT22;64265;51.664;7.626;2023-03-14T00:38:38;20.70;74.10
2363;DHT22;64265;51.664;7.626;2023-03-14T00:41:07;20.70;74.00
2363;DHT22;64265;51.664;7.626;2023-03-14T00:43:34;20.70;74.10
2363;DHT22;64265;51.664;7.626;2023-03-14T00:46:03;20.70;74.00
2363;DHT22;64265;51.664;7.626;2023-03-14T00:48:30;20.70;74.10
2363;DHT22;64265;51.664;7.626;2023-03-14T00:50:57;20.60;73.90
2363;DHT22;64265;51.664;7.626;2023-03-14T00:53:23;20.60;73.90
2363;DHT22;64265;51.664;7.626;2023-03-14T00:55:50;20.60;73.90
2363;DHT22;64265;51.664;7.626;2023-03-14T00:58:18;20.60;73.90
2363;DHT22;64265;51.664;7.626;2023-03-14T01:00:45;20.60;74.00
2363;DHT22;64265;51.664;7.626;2023-03-14T01:03:14;20.60;73.90
2363;DHT22;64265;51.664;7.626;2023-03-14T01:05:41;20.60;73.90
2363;DHT22;64265;51.664;7.626;2023-03-14T01:08:07;20.60;73.90
2363;DHT22;64265;51.664;7.626;2023-03-14T01:10:34;20.60;73.90
2363;DHT22;64265;51.664;7.626;2023-03-14T01:13:03;20.60;73.90
2363;DHT22;64265;51.664;7.626;2023-03-14T01:15:32;20.50;73.80
2363;DHT22;64265;51.664;7.626;2023-03-14T01:17:58;20.50;73.80
2363;DHT22;64265;51.664;7.626;2023-03-14T01:20:26;20.50;73.90
2363;DHT22;64265;51.664;7.626;2023-03-14T01:22:53;20.50;73.90
2363;DHT22;64265;51.664;7.626;2023-03-14T01:25:20;20.50;73.80
2363;DHT22;64265;51.664;7.626;2023-03-14T01:27:46;20.50;73.80
2363;DHT22;64265;51.664;7.626;2023-03-14T01:30:14;20.50;73.90
2363;DHT22;64265;51.664;7.626;2023-03-14T01:32:40;20.50;73.80
2363;DHT22;64265;51.664;7.626;2023-03-14T01:35:07;20.50;73.90
2363;DHT22;64265;51.664;7.626;2023-03-14T01:37:36;20.50;73.90
2363;DHT22;64265;51.664;7.626;2023-03-14T01:40:03;20.40;73.70
2363;DHT22;64265;51.664;7.626;2023-03-14T01:42:31;20.40;73.70
2363;DHT22;64265;51.664;7.626;2023-03-14T01:44:59;20.40;73.70
2363;DHT22;64265;51.664;7.626;2023-03-14T01:47:27;20.40;73.70
2363;DHT22;64265;51.664;7.626;2023-03-14T01:49:56;20.40;73.70
2363;DHT22;64265;51.664;7.626;2023-03-14T01:52:28;20.40;73.80
2363;DHT22;64265;51.664;7.626;2023-03-14T01:55:03;20.40;73.80
2363;DHT22;64265;51.664;7.626;2023-03-14T01:57:33;20.40;73.80
2363;DHT22;64265;51.664;7.626;2023-03-14T02:00:05;20.40;74.60
2363;DHT22;64265;51.664;7.626;2023-03-14T02:02:37;20.40;73.80
2363;DHT22;64265;51.664;7.626;2023-03-14T02:05:05;20.40;73.80
2363;DHT22;64265;51.664;7.626;2023-03-14T02:07:36;20.30;73.70
2363;DHT22;64265;51.664;7.626;2023-03-14T02:10:07;20.30;73.70
2363;DHT22;64265;51.664;7.626;2023-03-14T02:12:34;20.30;73.70
2363;DHT22;64265;51.664;7.626;2023-03-14T02:15:01;20.30;73.70
2363;DHT22;64265;51.664;7.626;2023-03-14T02:17:28;20.30;73.70
2363;DHT22;64265;51.664;7.626;2023-03-14T02:20:10;20.30;73.70
2363;DHT22;64265;51.664;7.626;2023-03-14T02:22:42;20.30;73.70
2363;DHT22;64265;51.664;7.626;2023-03-14T02:25:16;20.30;73.70
2363;DHT22;64265;51.664;7.626;2023-03-14T02:27:45;20.30;73.70
2363;DHT22;64265;51.664;7.626;2023-03-14T02:30:15;20.20;73.70
2363;DHT22;64265;51.664;7.626;2023-03-14T02:32:44;20.20;73.60
2363;DHT22;64265;51.664;7.626;2023-03-14T02:35:15;20.20;73.60
2363;DHT22;64265;51.664;7.626;2023-03-14T02:37:47;20.20;73.60
2363;DHT22;64265;51.664;7.626;2023-03-14T02:40:15;20.20;73.50
2363;DHT22;64265;51.664;7.626;2023-03-14T02:42:42;20.30;73.50
2363;DHT22;64265;51.664;7.626;2023-03-14T02:45:36;20.20;73.40
2363;DHT22;64265;51.664;7.626;2023-03-14T02:48:07;20.20;73.40
2363;DHT22;64265;51.664;7.626;2023-03-14T02:50:35;20.20;73.40
2363;DHT22;64265;51.664;7.626;2023-03-14T02:53:02;20.20;73.40
2363;DHT22;64265;51.664;7.626;2023-03-14T02:55:28;20.20;73.40
2363;DHT22;64265;51.664;7.626;2023-03-14T02:57:55;20.20;73.40
2363;DHT22;64265;51.664;7.626;2023-03-14T03:00:22;20.20;73.40
2363;DHT22;64265;51.664;7.626;2023-03-14T03:02:50;20.20;73.30
2363;DHT22;64265;51.664;7.626;2023-03-14T03:05:17;20.20;73.30
2363;DHT22;64265;51.664;7.626;2023-03-14T03:07:43;20.20;73.30
2363;DHT22;64265;51.664;7.626;2023-03-14T03:10:11;20.20;73.20
2363;DHT22;64265;51.664;7.626;2023-03-14T03:12:37;20.20;73.30
2363;DHT22;64265;51.664;7.626;2023-03-14T03:15:05;20.20;73.30
2363;DHT22;64265;51.664;7.626;2023-03-14T03:17:32;20.20;73.60
2363;DHT22;64265;51.664;7.626;2023-03-14T03:20:00;20.10;73.20
2363;DHT22;64265;51.664;7.626;2023-03-14T03:22:26;20.10;73.20
2363;DHT22;64265;51.664;7.626;2023-03-14T03:24:53;20.10;73.20
2363;DHT22;64265;51.664;7.626;2023-03-14T03:27:20;20.10;73.20
2363;DHT22;64265;51.664;7.626;2023-03-14T03:29:46;20.10;73.10
2363;DHT22;64265;51.664;7.626;2023-03-14T03:32:13;20.10;73.20
2363;DHT22;64265;51.664;7.626;2023-03-14T03:34:40;20.10;73.20
2363;DHT22;64265;51.664;7.626;2023-03-14T03:37:08;20.10;73.20
2363;DHT22;64265;51.664;7.626;2023-03-14T03:39:35;20.10;73.20
2363;DHT22;64265;51.664;7.626;2023-03-14T03:42:01;20.10;73.20
2363;DHT22;64265;51.664;7.626;2023-03-14T03:44:28;20.10;73.20
2363;DHT22;64265;51.664;7.626;2023-03-14T03:46:55;20.10;73.20
2363;DHT22;64265;51.664;7.626;2023-03-14T03:49:22;20.10;73.20
2363;DHT22;64265;51.664;7.626;2023-03-14T03:51:48;20.10;73.20
2363;DHT22;64265;51.664;7.626;2023-03-14T03:54:16;20.00;73.10
2363;DHT22;64265;51.664;7.626;2023-03-14T03:56:43;20.00;73.10
2363;DHT22;64265;51.664;7.626;2023-03-14T03:59:10;20.00;73.10
2363;DHT22;64265;51.664;7.626;2023-03-14T04:01:36;20.00;73.10
2363;DHT22;64265;51.664;7.626;2023-03-14T04:04:03;20.00;73.10
2363;DHT22;64265;51.664;7.626;2023-03-14T04:06:30;20.00;73.10
2363;DHT22;64265;51.664;7.626;2023-03-14T04:08:56;20.00;73.10
2363;DHT22;64265;51.664;7.626;2023-03-14T04:11:25;20.00;73.10
2363;DHT22;64265;51.664;7.626;2023-03-14T04:13:51;20.00;73.10
2363;DHT22;64265;51.664;7.626;2023-03-14T04:16:20;20.00;73.10
2363;DHT22;64265;51.664;7.626;2023-03-14T04:18:47;20.00;73.90
2363;DHT22;64265;51.664;7.626;2023-03-14T04:21:14;20.00;73.10
2363;DHT22;64265;51.664;7.626;2023-03-14T04:23:41;19.90;73.00
2363;DHT22;64265;51.664;7.626;2023-03-14T04:26:08;19.90;73.00
2363;DHT22;64265;51.664;7.626;2023-03-14T04:28:36;19.90;73.00
2363;DHT22;64265;51.664;7.626;2023-03-14T04:31:07;19.90;73.00
2363;DHT22;64265;51.664;7.626;2023-03-14T04:33:34;19.90;72.90
2363;DHT22;64265;51.664;7.626;2023-03-14T04:36:02;19.90;72.90
2363;DHT22;64265;51.664;7.626;2023-03-14T04:38:29;19.90;73.00
2363;DHT22;64265;51.664;7.626;2023-03-14T04:40:55;19.90;73.00
2363;DHT22;64265;51.664;7.626;2023-03-14T04:43:22;19.90;73.10
2363;DHT22;64265;51.664;7.626;2023-03-14T04:45:50;19.90;73.00
2363;DHT22;64265;51.664;7.626;2023-03-14T04:48:17;19.90;73.00
2363;DHT22;64265;51.664;7.626;2023-03-14T04:50:43;19.90;73.00
2363;DHT22;64265;51.664;7.626;2023-03-14T04:53:11;19.90;73.00
2363;DHT22;64265;51.664;7.626;2023-03-14T04:55:38;19.90;73.80
2363;DHT22;64265;51.664;7.626;2023-03-14T04:58:05;19.80;72.90
2363;DHT22;64265;51.664;7.626;2023-03-14T05:00:32;19.90;73.00
2363;DHT22;64265;51.664;7.626;2023-03-14T05:03:00;19.80;72.90
2363;DHT22;64265;51.664;7.626;2023-03-14T05:05:26;19.80;72.90
2363;DHT22;64265;51.664;7.626;2023-03-14T05:07:53;19.80;72.90
2363;DHT22;64265;51.664;7.626;2023-03-14T05:10:20;19.80;72.90
2363;DHT22;64265;51.664;7.626;2023-03-14T05:12:46;19.80;72.90
2363;DHT22;64265;51.664;7.626;2023-03-14T05:15:13;19.80;72.90
2363;DHT22;64265;51.664;7.626;2023-03-14T05:17:40;19.80;72.90
2363;DHT22;64265;51.664;7.626;2023-03-14T05:20:09;19.80;72.90
2363;DHT22;64265;51.664;7.626;2023-03-14T05:22:39;19.80;72.90
2363;DHT22;64265;51.664;7.626;2023-03-14T05:25:06;19.80;72.90
2363;DHT22;64265;51.664;7.626;2023-03-14T05:27:33;19.80;72.80
2363;DHT22;64265;51.664;7.626;2023-03-14T05:30:00;19.80;72.80
2363;DHT22;64265;51.664;7.626;2023-03-14T05:32:26;19.80;72.70
2363;DHT22;64265;51.664;7.626;2023-03-14T05:34:53;19.80;72.70
2363;DHT22;64265;51.664;7.626;2023-03-14T05:37:25;19.80;72.70
2363;DHT22;64265;51.664;7.626;2023-03-14T05:39:51;19.80;72.70
2363;DHT22;64265;51.664;7.626;2023-03-14T05:42:18;19.80;72.60
2363;DHT22;64265;51.664;7.626;2023-03-14T05:44:45;19.80;72.60
2363;DHT22;64265;51.664;7.626;2023-03-14T05:47:12;19.80;72.60
2363;DHT22;64265;51.664;7.626;2023-03-14T05:49:39;19.80;72.60
2363;DHT22;64265;51.664;7.626;2023-03-14T05:52:05;19.80;72.60
2363;DHT22;64265;51.664;7.626;2023-03-14T05:54:34;19.80;72.50
2363;DHT22;64265;51.664;7.626;2023-03-14T05:57:00;19.80;72.60
2363;DHT22;64265;51.664;7.626;2023-03-14T05:59:30;19.80;72.60
2363;DHT22;64265;51.664;7.626;2023-03-14T06:01:57;19.80;72.60
2363;DHT22;64265;51.664;7.626;2023-03-14T06:04:24;19.80;72.60
2363;DHT22;64265;51.664;7.626;2023-03-14T06:06:50;19.70;72.50
2363;DHT22;64265;51.664;7.626;2023-03-14T06:09:17;19.80;72.60
2363;DHT22;64265;51.664;7.626;2023-03-14T06:11:46;19.70;72.40
2363;DHT22;64265;51.664;7.626;2023-03-14T06:14:13;19.70;72.40
2363;DHT22;64265;51.664;7.626;2023-03-14T06:16:39;19.70;72.40
2363;DHT22;64265;51.664;7.626;2023-03-14T06:19:06;19.80;72.50
2363;DHT22;64265;51.664;7.626;2023-03-14T06:21:33;19.80;72.30
2363;DHT22;64265;51.664;7.626;2023-03-14T06:24:00;19.80;72.20
2363;DHT22;64265;51.664;7.626;2023-03-14T06:26:26;19.80;72.20
2363;DHT22;64265;51.664;7.626;2023-03-14T06:28:55;19.80;72.20
2363;DHT22;64265;51.664;7.626;2023-03-14T06:31:22;19.90;72.30
2363;DHT22;64265;51.664;7.626;2023-03-14T06:33:48;19.90;72.30
2363;DHT22;64265;51.664;7.626;2023-03-14T06:36:15;19.90;72.30
2363;DHT22;64265;51.664;7.626;2023-03-14T06:38:42;19.90;72.20
2363;DHT22;64265;51.664;7.626;2023-03-14T06:41:08;19.90;72.20
2363;DHT22;64265;51.664;7.626;2023-03-14T06:43:35;19.90;72.20
2363;DHT22;64265;51.664;7.626;2023-03-14T06:46:03;19.90;72.20
2363;DHT22;64265;51.664;7.626;2023-03-14T06:48:30;19.90;72.20
2363;DHT22;64265;51.664;7.626;2023-03-14T06:50:57;19.90;72.20
2363;DHT22;64265;51.664;7.626;2023-03-14T06:53:24;19.90;72.20
2363;DHT22;64265;51.664;7.626;2023-03-14T06:55:51;19.90;73.00
2363;DHT22;64265;51.664;7.626;2023-03-14T06:58:19;19.90;72.20
2363;DHT22;64265;51.664;7.626;2023-03-14T07:00:45;19.90;72.20
2363;DHT22;64265;51.664;7.626;2023-03-14T07:03:15;19.90;72.10
2363;DHT22;64265;51.664;7.626;2023-03-14T07:05:41;19.90;72.10
2363;DHT22;64265;51.664;7.626;2023-03-14T07:08:08;19.90;72.00
2363;DHT22;64265;51.664;7.626;2023-03-14T07:10:35;20.00;72.10
2363;DHT22;64265;51.664;7.626;2023-03-14T07:13:02;20.00;72.00
2363;DHT22;64265;51.664;7.626;2023-03-14T07:15:29;20.00;72.00
2363;DHT22;64265;51.664;7.626;2023-03-14T07:17:56;20.00;72.00
2363;DHT22;64265;51.664;7.626;2023-03-14T07:20:24;20.00;71.90
2363;DHT22;64265;51.664;7.626;2023-03-14T07:22:51;20.10;72.00
2363;DHT22;64265;51.664;7.626;2023-03-14T07:25:18;20.10;72.00
2363;DHT22;64265;51.664;7.626;2023-03-14T07:27:45;20.10;72.00
2363;DHT22;64265;51.664;7.626;2023-03-14T07:30:13;20.10;72.00
2363;DHT22;64265;51.664;7.626;2023-03-14T07:32:40;20.10;72.00
2363;DHT22;64265;51.664;7.626;2023-03-14T07:35:07;20.10;72.00
2363;DHT22;64265;51.664;7.626;2023-03-14T07:37:35;20.10;72.00
2363;DHT22;64265;51.664;7.626;2023-03-14T07:40:02;20.10;72.00
2363;DHT22;64265;51.664;7.626;2023-03-14T07:42:32;20.10;71.80
2363;DHT22;64265;51.664;7.626;2023-03-14T07:44:59;20.10;71.80
2363;DHT22;64265;51.664;7.626;2023-03-14T07:47:25;20.10;71.80
2363;DHT22;64265;51.664;7.626;2023-03-14T07:49:52;20.10;71.80
2363;DHT22;64265;51.664;7.626;2023-03-14T07:52:19;20.10;71.80
2363;DHT22;64265;51.664;7.626;2023-03-14T07:54:47;20.10;71.80
2363;DHT22;64265;51.664;7.626;2023-03-14T07:57:13;20.10;71.80
2363;DHT22;64265;51.664;7.626;2023-03-14T07:59:40;20.10;71.80
2363;DHT22;64265;51.664;7.626;2023-03-14T08:02:10;20.10;71.80
2363;DHT22;64265;51.664;7.626;2023-03-14T08:04:37;20.20;71.90
2363;DHT22;64265;51.664;7.626;2023-03-14T08:07:04;20.20;71.90
2363;DHT22;64265;51.664;7.626;2023-03-14T08:09:31;20.20;71.90
2363;DHT22;64265;51.664;7.626;2023-03-14T08:11:59;20.20;71.80
2363;DHT22;64265;51.664;7.626;2023-03-14T08:14:26;20.20;71.80
2363;DHT22;64265;51.664;7.626;2023-03-14T08:16:54;20.20;71.80
2363;DHT22;64265;51.664;7.626;2023-03-14T08:19:21;20.20;71.90
2363;DHT22;64265;51.664;7.626;2023-03-14T08:21:47;20.20;72.00
2363;DHT22;64265;51.664;7.626;2023-03-14T08:24:14;20.20;72.00
2363;DHT22;64265;51.664;7.626;2023-03-14T08:26:41;20.20;72.00
2363;DHT22;64265;51.664;7.626;2023-03-14T08:29:10;20.20;72.10
2363;DHT22;64265;51.664;7.626;2023-03-14T08:31:38;20.20;72.10
2363;DHT22;64265;51.664;7.626;2023-03-14T08:34:05;20.20;72.00
2363;DHT22;64265;51.664;7.626;2023-03-14T08:36:32;20.20;71.90
2363;DHT22;64265;51.664;7.626;2023-03-14T08:38:59;20.20;71.90
2363;DHT22;64265;51.664;7.626;2023-03-14T08:41:25;20.20;71.90
2363;DHT22;64265;51.664;7.626;2023-03-14T08:43:52;20.20;72.80
2363;DHT22;64265;51.664;7.626;2023-03-14T08:46:20;20.20;72.00
2363;DHT22;64265;51.664;7.626;2023-03-14T08:48:47;20.20;72.00
2363;DHT22;64265;51.664;7.626;2023-03-14T08:51:14;20.30;72.10
2363;DHT22;64265;51.664;7.626;2023-03-14T08:53:41;20.30;72.00
2363;DHT22;64265;51.664;7.626;2023-03-14T08:56:08;20.30;71.90
2363;DHT22;64265;51.664;7.626;2023-03-14T08:58:35;20.40;72.40
2363;DHT22;64265;51.664;7.626;2023-03-14T09:01:03;20.40;72.10
2363;DHT22;64265;51.664;7.626;2023-03-14T09:03:32;20.40;72.10
2363;DHT22;64265;51.664;7.626;2023-03-14T09:06:02;20.30;72.10
2363;DHT22;64265;51.664;7.626;2023-03-14T09:08:29;20.30;72.00
2363;DHT22;64265;51.664;7.626;2023-03-14T09:10:56;20.30;72.00
2363;DHT22;64265;51.664;7.626;2023-03-14T09:13:23;20.30;72.00
2363;DHT22;64265;51.664;7.626;2023-03-14T09:15:51;20.30;72.00
2363;DHT22;64265;51.664;7.626;2023-03-14T09:18:17;20.30;72.00
2363;DHT22;64265;51.664;7.626;2023-03-14T09:20:46;20.30;72.00
2363;DHT22;64265;51.664;7.626;2023-03-14T09:23:12;20.30;72.00
2363;DHT22;64265;51.664;7.626;2023-03-14T09:25:39;20.30;72.00
2363;DHT22;64265;51.664;7.626;2023-03-14T09:28:06;20.30;72.00
2363;DHT22;64265;51.664;7.626;2023-03-14T09:30:33;20.30;72.00
2363;DHT22;64265;51.664;7.626;2023-03-14T09:32:59;20.30;72.00
2363;DHT22;64265;51.664;7.626;2023-03-14T09:35:26;20.30;72.00
2363;DHT22;64265;51.664;7.626;2023-03-14T09:37:54;20.30;72.00
2363;DHT22;64265;51.664;7.626;2023-03-14T09:40:21;20.30;71.90
2363;DHT22;64265;51.664;7.626;2023-03-14T09:42:50;20.30;71.90
2363;DHT22;64265;51.664;7.626;2023-03-14T09:45:25;20.30;71.90
2363;DHT22;64265;51.664;7.626;2023-03-14T09:47:52;20.40;72.00
2363;DHT22;64265;51.664;7.626;2023-03-14T09:50:19;20.40;71.90
2363;DHT22;64265;51.664;7.626;2023-03-14T09:52:49;20.40;71.90
2363;DHT22;64265;51.664;7.626;2023-03-14T09:55:20;20.40;71.90
2363;DHT22;64265;51.664;7.626;2023-03-14T09:57:49;20.40;71.90
2363;DHT22;64265;51.664;7.626;2023-03-14T10:00:20;20.40;71.90
2363;DHT22;64265;51.664;7.626;2023-03-14T10:02:51;20.40;71.90
2363;DHT22;64265;51.664;7.626;2023-03-14T10:05:20;20.40;71.80
2363;DHT22;64265;51.664;7.626;2023-03-14T10:07:47;20.40;71.90
2363;DHT22;64265;51.664;7.626;2023-03-14T10:10:17;20.40;71.90
2363;DHT22;64265;51.664;7.626;2023-03-14T10:12:47;20.40;71.90
2363;DHT22;64265;51.664;7.626;2023-03-14T10:15:15;20.40;72.00
2363;DHT22;64265;51.664;7.626;2023-03-14T10:17:50;20.40;72.10
2363;DHT22;64265;51.664;7.626;2023-03-14T10:20:29;20.40;72.00
2363;DHT22;64265;51.664;7.626;2023-03-14T10:22:59;20.50;72.20
2363;DHT22;64265;51.664;7.626;2023-03-14T10:25:27;20.50;72.30
2363;DHT22;64265;51.664;7.626;2023-03-14T10:27:56;20.50;72.30
2363;DHT22;64265;51.664;7.626;2023-03-14T10:30:39;20.60;72.50
2363;DHT22;64265;51.664;7.626;2023-03-14T10:33:12;20.60;72.60
2363;DHT22;64265;51.664;7.626;2023-03-14T10:35:45;20.60;72.70
2363;DHT22;64265;51.664;7.626;2023-03-14T10:38:13;20.60;72.80
2363;DHT22;64265;51.664;7.626;2023-03-14T10:40:46;20.60;72.90
2363;DHT22;64265;51.664;7.626;2023-03-14T10:43:17;20.60;72.90
2363;DHT22;64265;51.664;7.626;2023-03-14T10:45:52;20.60;73.10
2363;DHT22;64265;51.664;7.626;2023-03-14T10:48:25;20.70;73.30
2363;DHT22;64265;51.664;7.626;2023-03-14T10:50:57;20.70;73.20
2363;DHT22;64265;51.664;7.626;2023-03-14T10:53:24;20.70;73.30
2363;DHT22;64265;51.664;7.626;2023-03-14T10:55:51;20.80;74.40
2363;DHT22;64265;51.664;7.626;2023-03-14T10:58:24;20.80;73.60
2363;DHT22;64265;51.664;7.626;2023-03-14T11:01:05;20.80;73.70
2363;DHT22;64265;51.664;7.626;2023-03-14T11:03:36;20.80;73.80
2363;DHT22;64265;51.664;7.626;2023-03-14T11:06:08;20.80;73.90
2363;DHT22;64265;51.664;7.626;2023-03-14T11:08:43;20.80;73.90
2363;DHT22;64265;51.664;7.626;2023-03-14T11:11:17;20.80;74.00
2363;DHT22;64265;51.664;7.626;2023-03-14T11:13:55;20.80;74.00
2363;DHT22;64265;51.664;7.626;2023-03-14T11:16:28;20.90;74.40
2363;DHT22;64265;51.664;7.626;2023-03-14T11:19:13;20.90;74.20
2363;DHT22;64265;51.664;7.626;2023-03-14T11:21:48;20.90;74.20
2363;DHT22;64265;51.664;7.626;2023-03-14T11:24:27;20.90;74.20
2363;DHT22;64265;51.664;7.626;2023-03-14T11:26:59;20.90;74.20
2363;DHT22;64265;51.664;7.626;2023-03-14T11:29:37;20.90;74.20
2363;DHT22;64265;51.664;7.626;2023-03-14T11:32:12;20.90;74.20
2363;DHT22;64265;51.664;7.626;2023-03-14T11:34:44;20.90;74.20
2363;DHT22;64265;51.664;7.626;2023-03-14T11:37:18;21.00;74.30
2363;DHT22;64265;51.664;7.626;2023-03-14T11:39:56;21.00;74.30
2363;DHT22;64265;51.664;7.626;2023-03-14T11:42:26;21.00;74.30
2363;DHT22;64265;51.664;7.626;2023-03-14T11:44:56;21.00;74.30
2363;DHT22;64265;51.664;7.626;2023-03-14T11:47:26;21.00;74.30
2363;DHT22;64265;51.664;7.626;2023-03-14T11:49:59;21.00;74.30
2363;DHT22;64265;51.664;7.626;2023-03-14T11:52:32;21.00;74.30
2363;DHT22;64265;51.664;7.626;2023-03-14T11:55:02;21.10;74.50
2363;DHT22;64265;51.664;7.626;2023-03-14T11:57:32;21.00;74.40
2363;DHT22;64265;51.664;7.626;2023-03-14T12:00:03;21.10;74.50
2363;DHT22;64265;51.664;7.626;2023-03-14T12:02:38;21.10;74.40
2363;DHT22;64265;51.664;7.626;2023-03-14T12:05:37;21.00;74.30
2363;DHT22;64265;51.664;7.626;2023-03-14T12:08:25;21.00;74.30
2363;DHT22;64265;51.664;7.626;2023-03-14T12:10:59;21.10;74.50
2363;DHT22;64265;51.664;7.626;2023-03-14T12:13:29;21.10;74.40
2363;DHT22;64265;51.664;7.626;2023-03-14T12:15:58;21.10;74.40
2363;DHT22;64265;51.664;7.626;2023-03-14T12:18:28;21.10;74.40
2363;DHT22;64265;51.664;7.626;2023-03-14T12:20:57;21.10;74.40
2363;DHT22;64265;51.664;7.626;2023-03-14T12:23:26;21.10;74.40
2363;DHT22;64265;51.664;7.626;2023-03-14T12:26:16;21.10;74.40
2363;DHT22;64265;51.664;7.626;2023-03-14T12:28:48;21.10;74.30
2363;DHT22;64265;51.664;7.626;2023-03-14T12:31:40;21.20;74.50
2363;DHT22;64265;51.664;7.626;2023-03-14T12:34:28;21.20;74.50
2363;DHT22;64265;51.664;7.626;2023-03-14T12:37:05;21.20;74.50
2363;DHT22;64265;51.664;7.626;2023-03-14T12:39:43;21.20;74.50
2363;DHT22;64265;51.664;7.626;2023-03-14T12:42:13;21.20;74.50
2363;DHT22;64265;51.664;7.626;2023-03-14T12:44:46;21.20;74.50
2363;DHT22;64265;51.664;7.626;2023-03-14T12:50:19;21.20;74.50
2363;DHT22;64265;51.664;7.626;2023-03-14T12:53:05;21.20;74.50
2363;DHT22;64265;51.664;7.626;2023-03-14T12:55:38;21.20;74.50
2363;DHT22;64265;51.664;7.626;2023-03-14T12:58:11;21.20;74.50
2363;DHT22;64265;51.664;7.626;2023-03-14T13:00:42;21.30;74.70
2363;DHT22;64265;51.664;7.626;2023-03-14T13:03:19;21.30;74.60
2363;DHT22;64265;51.664;7.626;2023-03-14T13:05:57;21.30;74.70
2363;DHT22;64265;51.664;7.626;2023-03-14T13:08:36;21.30;74.70
2363;DHT22;64265;51.664;7.626;2023-03-14T13:11:06;21.30;74.70
2363;DHT22;64265;51.664;7.626;2023-03-14T13:13:35;21.30;74.70
2363;DHT22;64265;51.664;7.626;2023-03-14T13:16:02;21.30;74.70
2363;DHT22;64265;51.664;7.626;2023-03-14T13:18:34;21.30;74.70
2363;DHT22;64265;51.664;7.626;2023-03-14T13:21:05;21.30;74.70
2363;DHT22;64265;51.664;7.626;2023-03-14T13:23:36;21.30;74.70
2363;DHT22;64265;51.664;7.626;2023-03-14T13:26:05;21.30;74.70
2363;DHT22;64265;51.664;7.626;2023-03-14T13:28:35;21.30;74.70
2363;DHT22;64265;51.664;7.626;2023-03-14T13:31:03;21.30;74.60
2363;DHT22;64265;51.664;7.626;2023-03-14T13:33:30;21.30;74.60
2363;DHT22;64265;51.664;7.626;2023-03-14T13:35:59;21.30;74.70
2363;DHT22;64265;51.664;7.626;2023-03-14T13:38:30;21.30;74.90
2363;DHT22;64265;51.664;7.626;2023-03-14T13:40:58;21.30;75.00
2363;DHT22;64265;51.664;7.626;2023-03-14T13:43:28;21.30;75.00
2363;DHT22;64265;51.664;7.626;2023-03-14T13:46:02;20.80;66.80
2363;DHT22;64265;51.664;7.626;2023-03-14T13:48:31;20.30;63.60
2363;DHT22;64265;51.664;7.626;2023-03-14T13:51:00;19.90;61.40
2363;DHT22;64265;51.664;7.626;2023-03-14T13:53:29;19.60;59.70
2363;DHT22;64265;51.664;7.626;2023-03-14T13:55:56;19.30;58.90
2363;DHT22;64265;51.664;7.626;2023-03-14T13:58:25;19.20;58.70
2363;DHT22;64265;51.664;7.626;2023-03-14T14:00:56;19.10;58.90
2363;DHT22;64265;51.664;7.626;2023-03-14T14:03:23;19.00;58.20
2363;DHT22;64265;51.664;7.626;2023-03-14T14:05:50;18.90;58.30
2363;DHT22;64265;51.664;7.626;2023-03-14T14:08:17;18.80;58.40
2363;DHT22;64265;51.664;7.626;2023-03-14T14:10:47;18.70;58.30
2363;DHT22;64265;51.664;7.626;2023-03-14T14:13:17;18.60;58.70
2363;DHT22;64265;51.664;7.626;2023-03-14T14:15:47;18.70;59.00
2363;DHT22;64265;51.664;7.626;2023-03-14T14:18:17;18.60;58.80
2363;DHT22;64265;51.664;7.626;2023-03-14T14:20:46;18.40;58.70
2363;DHT22;64265;51.664;7.626;2023-03-14T14:23:15;18.30;59.00
2363;DHT22;64265;51.664;7.626;2023-03-14T14:25:46;18.30;59.20
2363;DHT22;64265;51.664;7.626;2023-03-14T14:28:18;18.40;58.10
2363;DHT22;64265;51.664;7.626;2023-03-14T14:31:00;18.30;57.10
2363;DHT22;64265;51.664;7.626;2023-03-14T14:33:27;18.20;56.70
2363;DHT22;64265;51.664;7.626;2023-03-14T14:35:56;18.20;55.80
2363;DHT22;64265;51.664;7.626;2023-03-14T14:38:24;18.10;55.00
2363;DHT22;64265;51.664;7.626;2023-03-14T14:40:54;18.10;55.00
2363;DHT22;64265;51.664;7.626;2023-03-14T14:43:24;18.30;55.70
2363;DHT22;64265;51.664;7.626;2023-03-14T14:45:54;18.70;56.60
2363;DHT22;64265;51.664;7.626;2023-03-14T14:48:23;19.00;57.50
2363;DHT22;64265;51.664;7.626;2023-03-14T14:50:55;19.30;58.20
2363;DHT22;64265;51.664;7.626;2023-03-14T14:53:27;19.50;58.80
2363;DHT22;64265;51.664;7.626;2023-03-14T14:55:57;19.70;59.20
2363;DHT22;64265;51.664;7.626;2023-03-14T14:58:26;19.80;59.60
2363;DHT22;64265;51.664;7.626;2023-03-14T15:00:58;19.90;60.00
2363;DHT22;64265;51.664;7.626;2023-03-14T15:03:27;20.00;60.50
2363;DHT22;64265;51.664;7.626;2023-03-14T15:05:55;20.00;61.60
2363;DHT22;64265;51.664;7.626;2023-03-14T15:08:22;20.10;61.10
2363;DHT22;64265;51.664;7.626;2023-03-14T15:10:50;20.10;62.20
2363;DHT22;64265;51.664;7.626;2023-03-14T15:13:18;20.20;61.80
2363;DHT22;64265;51.664;7.626;2023-03-14T15:15:45;20.20;62.00
2363;DHT22;64265;51.664;7.626;2023-03-14T15:18:14;20.30;62.30
2363;DHT22;64265;51.664;7.626;2023-03-14T15:20:41;20.30;62.70
2363;DHT22;64265;51.664;7.626;2023-03-14T15:23:11;20.30;62.90
2363;DHT22;64265;51.664;7.626;2023-03-14T15:25:37;20.40;63.20
2363;DHT22;64265;51.664;7.626;2023-03-14T15:28:14;20.40;63.70
2363;DHT22;64265;51.664;7.626;2023-03-14T15:30:43;20.40;63.60
2363;DHT22;64265;51.664;7.626;2023-03-14T15:33:10;20.50;64.00
2363;DHT22;64265;51.664;7.626;2023-03-14T15:35:37;20.50;64.20
2363;DHT22;64265;51.664;7.626;2023-03-14T15:38:04;20.50;64.60
2363;DHT22;64265;51.664;7.626;2023-03-14T15:40:31;20.50;65.00
2363;DHT22;64265;51.664;7.626;2023-03-14T15:42:57;20.60;65.30
2363;DHT22;64265;51.664;7.626;2023-03-14T15:45:24;20.60;65.60
2363;DHT22;64265;51.664;7.626;2023-03-14T15:47:52;20.60;65.70
2363;DHT22;64265;51.664;7.626;2023-03-14T15:50:19;20.60;65.90
2363;DHT22;64265;51.664;7.626;2023-03-14T15:52:45;20.60;66.00
2363;DHT22;64265;51.664;7.626;2023-03-14T15:55:12;20.60;66.30
2363;DHT22;64265;51.664;7.626;2023-03-14T15:57:40;20.60;66.40
2363;DHT22;64265;51.664;7.626;2023-03-14T16:00:09;20.60;66.50